Branson, Colorado
Current Conditions -  °F | °C
As of 10:54 PM on Tuesday 21 Oct 2014 (Local Time) from KTAD Reporting Station
Clear Clear  
Wind Chill: 57°   Ceiling: Unl
Heat Index: 57°   Visibility: 10mi
Dew Point: 44°   Wind: 0mph
Humidity: 62%   Direction: NA
Pressure: 30.02"   Gusts: NA
Location:  37.02°N, 103.88°W
Report Text: KTAD 220454Z AUTO 00000KT 10SM CLR 14/07 A3002 RMK AO2 SLP104 T01390067
Loading
Personal Weather Stations






























Interactive Weather Map
Tropical Storm Tracking
New forecast layout! Learn more

10-Day Weather Forecast

Advertisements
Track Severe Weather on mobile